Time;durP1;ratioP1;P1;durP2;ratioP2;P2;SDS_P1;SDS_P2;PMS_P1;PMS_P2;Temp;Humidity;BMP_temperature;BMP_pressure;BME280_temperature;BME280_humidity;BME280_pressure;Samples;Min_cycle;Max_cycle;Signal;HPM_P1;HPM_P2
2023/02/22 00:04:04;;;;;;;1.92;1.83;;;;;;;8.54;100.00;98429.44;15266712;19;20081;-51
2023/02/22 00:09:38;;;;;;;2.10;1.90;;;;;;;8.55;100.00;98438.38;15266707;19;20014;-52
2023/02/22 00:15:04;;;;;;;2.60;1.88;;;;;;;8.51;100.00;98424.41;15269146;19;20018;-51
2023/02/22 00:20:32;;;;;;;2.38;1.83;;;;;;;8.51;100.00;98419.03;15270157;19;20029;-52
2023/02/22 00:26:01;;;;;;;3.70;2.00;;;;;;;8.49;100.00;98412.97;15264115;19;20014;-51
2023/02/22 00:31:26;;;;;;;2.53;1.90;;;;;;;8.47;100.00;98426.50;15266289;19;20053;-53
2023/02/22 00:36:51;;;;;;;2.33;1.88;;;;;;;8.47;100.00;98413.09;15267679;19;20025;-53
2023/02/22 00:42:19;;;;;;;2.28;1.92;;;;;;;8.47;100.00;98406.84;15264865;19;20020;-54
2023/02/22 00:47:44;;;;;;;2.35;1.80;;;;;;;8.42;100.00;98406.44;15267279;19;20475;-50
2023/02/22 00:53:10;;;;;;;2.50;2.30;;;;;;;8.43;100.00;98402.75;15262276;19;20019;-52
2023/02/22 00:58:39;;;;;;;3.72;2.22;;;;;;;8.42;100.00;98398.38;15265710;19;20553;-51
2023/02/22 01:04:03;;;;;;;2.22;2.03;;;;;;;8.40;100.00;98397.72;15266883;19;20023;-52
2023/02/22 01:09:28;;;;;;;2.28;2.00;;;;;;;8.40;100.00;98389.66;15264526;19;20014;-51
2023/02/22 01:14:57;;;;;;;2.45;2.10;;;;;;;8.38;100.00;98380.91;15263353;19;20029;-54
2023/02/22 01:20:24;;;;;;;2.50;2.10;;;;;;;8.35;100.00;98381.19;15280608;19;20360;-51
2023/02/22 01:25:55;;;;;;;2.30;2.10;;;;;;;8.28;100.00;98372.88;15279958;19;20018;-54
2023/02/22 01:31:23;;;;;;;2.20;2.00;;;;;;;8.28;100.00;98370.19;15280938;19;20464;-53
2023/02/22 01:36:48;;;;;;;2.20;2.00;;;;;;;8.27;100.00;98365.81;15279997;19;20014;-52
2023/02/22 01:42:14;;;;;;;2.33;1.90;;;;;;;8.24;100.00;98358.91;15279996;19;20018;-57
2023/02/22 01:47:41;;;;;;;3.10;2.20;;;;;;;8.23;100.00;98364.44;15278073;19;20014;-56
2023/02/22 01:53:08;;;;;;;2.45;2.20;;;;;;;8.22;100.00;98358.22;15283126;19;20367;-55
2023/02/22 01:58:35;;;;;;;2.47;2.00;;;;;;;8.23;100.00;98356.41;15283539;19;20037;-56
2023/02/22 02:04:09;;;;;;;3.00;2.42;;;;;;;8.21;100.00;98353.84;15281740;19;20044;-57
2023/02/22 02:09:39;;;;;;;2.75;2.20;;;;;;;8.20;100.00;98352.16;15284345;19;20010;-51
2023/02/22 02:15:22;;;;;;;2.05;1.90;;;;;;;8.20;100.00;98351.31;15284046;19;20085;-58
2023/02/22 02:20:56;;;;;;;2.30;2.10;;;;;;;8.20;100.00;98338.72;15271636;19;20014;-55
2023/02/22 02:26:49;;;;;;;3.25;2.10;;;;;;;8.20;100.00;98336.03;15273251;19;20514;-53
2023/02/22 02:32:34;;;;;;;2.38;2.17;;;;;;;8.18;100.00;98327.28;15275461;19;20848;-52
2023/02/22 02:38:05;;;;;;;3.15;2.20;;;;;;;8.21;100.00;98329.69;15275602;19;20014;-51
2023/02/22 02:43:35;;;;;;;2.47;2.07;;;;;;;8.21;100.00;98326.16;15275534;19;20019;-54
2023/02/22 02:49:07;;;;;;;4.47;2.20;;;;;;;8.20;100.00;98319.94;15277126;19;20018;-53
2023/02/22 02:54:33;;;;;;;3.10;2.22;;;;;;;8.17;100.00;98318.41;15270228;19;20026;-56
2023/02/22 02:59:58;;;;;;;4.15;2.60;;;;;;;8.14;100.00;98320.56;15274539;19;20023;-52
2023/02/22 03:05:40;;;;;;;3.05;2.40;;;;;;;8.13;100.00;98326.91;15273617;19;20433;-54
2023/02/22 03:11:16;;;;;;;2.90;2.40;;;;;;;8.12;100.00;98327.91;15273603;19;20022;-52
2023/02/22 03:16:49;;;;;;;3.05;2.45;;;;;;;8.09;100.00;98312.94;15269117;19;20049;-53
2023/02/22 03:22:23;;;;;;;3.70;2.63;;;;;;;8.09;100.00;98323.69;15274215;19;20033;-53
2023/02/22 03:28:01;;;;;;;2.95;2.55;;;;;;;8.08;100.00;98313.94;15261585;19;20026;-55
2023/02/22 03:33:32;;;;;;;2.92;2.53;;;;;;;8.07;100.00;98314.94;15270871;19;20832;-54
2023/02/22 03:39:03;;;;;;;3.83;3.00;;;;;;;8.09;100.00;98317.44;15268392;19;20025;-52
2023/02/22 03:44:33;;;;;;;3.80;2.72;;;;;;;8.10;100.00;98316.47;15270428;19;20094;-53
2023/02/22 03:50:06;;;;;;;4.20;2.70;;;;;;;8.09;100.00;98301.34;15268073;19;20094;-55
2023/02/22 03:55:34;;;;;;;4.03;3.10;;;;;;;8.09;100.00;98306.72;15264218;19;20010;-51
2023/02/22 04:00:58;;;;;;;4.40;2.95;;;;;;;8.10;100.00;98308.41;15270464;19;20097;-54
2023/02/22 04:06:23;;;;;;;3.22;2.92;;;;;;;8.06;100.00;98302.50;15267628;19;20784;-53
2023/02/22 04:11:50;;;;;;;3.72;3.13;;;;;;;8.09;100.00;98304.03;15268752;19;20022;-53
2023/02/22 04:17:25;;;;;;;4.72;3.90;;;;;;;8.06;100.00;98307.88;15266059;19;20014;-55
2023/02/22 04:22:51;;;;;;;4.38;3.60;;;;;;;8.05;100.00;98299.97;15266820;19;20274;-52
2023/02/22 04:28:19;;;;;;;6.05;3.70;;;;;;;8.01;100.00;98294.91;15264237;19;20014;-51
2023/02/22 04:33:58;;;;;;;6.28;4.10;;;;;;;8.01;100.00;98300.28;15266184;19;20029;-52
2023/02/22 04:39:24;;;;;;;5.30;4.00;;;;;;;8.02;100.00;98288.53;15269861;19;20023;-52
2023/02/22 04:44:51;;;;;;;5.15;3.90;;;;;;;8.02;100.00;98283.19;15265750;19;20026;-52
2023/02/22 04:50:17;;;;;;;4.97;3.85;;;;;;;8.01;100.00;98278.81;15269077;19;20018;-52
2023/02/22 04:55:41;;;;;;;7.13;4.03;;;;;;;8.02;100.00;98271.59;15279754;19;20392;-52
2023/02/22 05:01:09;;;;;;;5.50;4.18;;;;;;;8.00;100.00;98266.38;15272533;19;20022;-53
2023/02/22 05:06:33;;;;;;;5.97;3.97;;;;;;;8.01;100.00;98267.22;15277044;19;20953;-51
2023/02/22 05:11:58;;;;;;;4.30;3.60;;;;;;;8.01;100.00;98265.38;15277846;19;20018;-51
2023/02/22 05:17:25;;;;;;;5.65;3.50;;;;;;;8.00;100.00;98261.00;15281504;19;20082;-51
2023/02/22 05:22:51;;;;;;;5.88;3.70;;;;;;;7.98;100.00;98268.38;15281060;19;20531;-54
2023/02/22 05:28:23;;;;;;;4.43;3.47;;;;;;;7.97;100.00;98264.00;15279134;19;20507;-53
2023/02/22 05:33:51;;;;;;;5.28;3.67;;;;;;;7.98;100.00;98259.47;15265584;19;20391;-54
2023/02/22 05:39:15;;;;;;;4.70;3.70;;;;;;;7.98;100.00;98257.63;15276194;19;20025;-52
2023/02/22 05:44:40;;;;;;;4.95;3.90;;;;;;;7.99;100.00;98261.19;15276155;19;20014;-49
2023/02/22 05:50:07;;;;;;;4.25;3.25;;;;;;;7.99;100.00;98258.50;15280761;19;20049;-55
2023/02/22 05:55:33;;;;;;;4.72;3.80;;;;;;;7.98;100.00;98257.63;15275758;19;20018;-53
2023/02/22 06:00:58;;;;;;;4.75;3.75;;;;;;;7.99;100.00;98253.13;15277428;19;20025;-53
2023/02/22 06:06:26;;;;;;;6.40;4.03;;;;;;;8.00;100.00;98260.16;15271778;19;20018;-52
2023/02/22 06:11:50;;;;;;;6.35;3.83;;;;;;;7.99;100.00;98259.31;15280606;19;20014;-52
2023/02/22 06:17:16;;;;;;;5.57;3.88;;;;;;;7.99;100.00;98263.84;15277739;19;20468;-51
2023/02/22 06:22:44;;;;;;;5.55;3.70;;;;;;;7.98;100.00;98257.63;15277694;19;20109;-52
2023/02/22 06:28:15;;;;;;;6.95;4.00;;;;;;;7.99;100.00;98261.19;15272353;19;20110;-55
2023/02/22 06:33:40;;;;;;;5.47;4.00;;;;;;;8.00;100.00;98263.69;15276920;19;20018;-53
2023/02/22 06:39:09;;;;;;;5.15;3.90;;;;;;;8.01;100.00;98270.75;15272445;19;20014;-50
2023/02/22 06:44:34;;;;;;;6.25;4.32;;;;;;;8.05;100.00;98265.09;15274790;19;20019;-52
2023/02/22 06:50:02;;;;;;;6.18;4.35;;;;;;;8.09;100.00;98269.16;15275010;19;20014;-51
2023/02/22 06:55:31;;;;;;;5.80;4.43;;;;;;;8.12;100.00;98271.53;15273712;19;20034;-51
2023/02/22 07:00:55;;;;;;;7.78;4.38;;;;;;;8.15;100.00;98272.09;15274032;19;20025;-49
2023/02/22 07:06:20;;;;;;;4.55;3.83;;;;;;;8.20;100.00;98276.19;15269707;19;20020;-53
2023/02/22 07:11:49;;;;;;;5.30;4.25;;;;;;;8.24;100.00;98278.41;15265838;19;20018;-52
2023/02/22 07:17:14;;;;;;;5.63;4.10;;;;;;;8.31;100.00;98284.03;15273850;19;20032;-51
2023/02/22 07:22:38;;;;;;;6.07;4.32;;;;;;;8.36;100.00;98286.25;15269793;19;20268;-56
2023/02/22 07:28:06;;;;;;;6.07;4.45;;;;;;;8.41;100.00;98292.03;15266693;19;20453;-52
2023/02/22 07:33:30;;;;;;;5.30;4.05;;;;;;;8.42;100.00;98285.63;15270944;19;20028;-53
2023/02/22 07:38:55;;;;;;;5.15;3.72;;;;;;;8.46;100.00;98276.28;15273389;19;20045;-53
2023/02/22 07:44:22;;;;;;;3.90;3.50;;;;;;;8.49;100.00;98276.03;15265296;19;20089;-55
2023/02/22 07:49:49;;;;;;;5.70;3.90;;;;;;;8.51;100.00;98275.88;15273589;19;20022;-56
2023/02/22 07:55:15;;;;;;;5.57;3.97;;;;;;;8.54;100.00;98273.72;15270197;19;20014;-53
2023/02/22 08:00:43;;;;;;;5.97;4.28;;;;;;;8.57;100.00;98278.78;15269982;19;20015;-53
2023/02/22 08:06:07;;;;;;;6.43;4.40;;;;;;;8.64;100.00;98276.34;15268879;19;20011;-55
2023/02/22 08:11:32;;;;;;;7.22;4.22;;;;;;;8.76;100.00;98268.91;15271293;19;20030;-52
2023/02/22 08:16:59;;;;;;;6.70;4.20;;;;;;;8.90;100.00;98262.97;15264379;19;20090;-51
2023/02/22 08:22:26;;;;;;;5.65;4.25;;;;;;;9.06;100.00;98267.63;15269490;19;20479;-56
2023/02/22 08:27:57;;;;;;;6.03;3.80;;;;;;;9.19;100.00;98259.19;15265865;19;20018;-54
2023/02/22 08:33:25;;;;;;;5.90;4.07;;;;;;;9.37;100.00;98250.22;15270685;19;20490;-56
2023/02/22 08:38:49;;;;;;;5.03;3.47;;;;;;;9.53;100.00;98253.03;15269507;19;20087;-56
2023/02/22 08:44:14;;;;;;;4.22;3.30;;;;;;;9.67;100.00;98250.75;15268521;19;20033;-57
2023/02/22 08:49:41;;;;;;;4.25;3.13;;;;;;;9.79;100.00;98249.47;15262965;19;20030;-56
2023/02/22 08:55:07;;;;;;;3.58;2.92;;;;;;;9.95;100.00;98248.72;15268030;19;20015;-57
2023/02/22 09:00:33;;;;;;;3.22;2.92;;;;;;;10.15;100.00;98243.91;15267962;19;20459;-55
2023/02/22 09:06:01;;;;;;;3.95;3.00;;;;;;;10.32;100.00;98246.63;15269275;19;20017;-55
2023/02/22 09:11:25;;;;;;;3.58;2.83;;;;;;;10.43;100.00;98249.06;15268886;19;20025;-55
2023/02/22 09:16:50;;;;;;;3.88;2.60;;;;;;;10.51;100.00;98237.47;15264580;19;20023;-54
2023/02/22 09:22:17;;;;;;;3.53;2.88;;;;;;;10.60;100.00;98239.16;15262759;19;20018;-53
2023/02/22 09:27:49;;;;;;;3.45;2.72;;;;;;;10.75;100.00;98230.44;15267754;19;20477;-56
2023/02/22 09:33:15;;;;;;;4.07;2.80;;;;;;;10.91;100.00;98230.44;15266096;19;20024;-54
2023/02/22 09:38:44;;;;;;;4.22;3.53;;;;;;;11.02;100.00;98225.72;15276583;19;20499;-56
2023/02/22 09:44:18;;;;;;;3.03;2.72;;;;;;;11.13;100.00;98217.28;15280762;19;20019;-53
2023/02/22 09:49:50;;;;;;;5.63;3.90;;;;;;;11.20;100.00;98217.47;15281079;19;20690;-54
2023/02/22 09:55:33;;;;;;;5.53;4.00;;;;;;;11.23;100.00;98217.13;15270733;19;20022;-56
2023/02/22 10:01:00;;;;;;;;;;;;;;;11.27;100.00;98204.97;15278869;19;20014;-54
2023/02/22 10:06:26;;;;;;;4.10;3.10;;;;;;;11.41;100.00;98208.81;15276766;19;19919;-53
2023/02/22 10:12:00;;;;;;;3.13;2.47;;;;;;;11.60;100.00;98196.78;15279292;19;20030;-53
2023/02/22 10:17:35;;;;;;;3.40;2.95;;;;;;;11.75;100.00;98190.66;15279299;19;20018;-54
2023/02/22 10:23:13;;;;;;;3.70;2.83;;;;;;;11.88;100.00;98188.25;15250829;19;20014;-54
2023/02/22 10:28:46;;;;;;;3.35;2.63;;;;;;;11.89;100.00;98179.16;15275560;19;20010;-53
2023/02/22 10:34:12;;;;;;;4.82;2.85;;;;;;;12.00;100.00;98183.31;15276205;19;20021;-55
2023/02/22 10:39:38;;;;;;;2.10;1.90;;;;;;;12.13;100.00;98178.19;15276704;19;20020;-53
2023/02/22 10:45:06;;;;;;;2.83;2.30;;;;;;;12.25;100.00;98173.25;15276430;19;20015;-51
2023/02/22 10:50:33;;;;;;;4.75;2.28;;;;;;;12.30;100.00;98154.63;15276276;19;20383;-55
2023/02/22 10:56:23;;;;;;;1.98;1.80;;;;;;;12.31;100.00;98150.09;15268217;19;20029;-54
2023/02/22 11:01:52;;;;;;;2.80;2.00;;;;;;;12.45;100.00;98151.16;15276972;19;20022;-51
2023/02/22 11:07:26;;;;;;;1.92;1.73;;;;;;;12.60;100.00;98143.09;15276887;19;20018;-57
2023/02/22 11:12:52;;;;;;;2.20;1.80;;;;;;;12.65;100.00;98129.91;15277042;19;20022;-54
2023/02/22 11:18:33;;;;;;;2.53;1.92;;;;;;;12.79;100.00;98120.13;15270630;19;20020;-52
2023/02/22 11:24:05;;;;;;;1.88;1.70;;;;;;;12.87;100.00;98116.53;15267690;19;20018;-54
2023/02/22 11:29:35;;;;;;;1.85;1.70;;;;;;;12.88;100.00;98108.22;15263969;19;20412;-53
2023/02/22 11:35:20;;;;;;;1.92;1.55;;;;;;;12.94;100.00;98112.91;15270897;19;20022;-55
2023/02/22 11:40:45;;;;;;;1.60;1.50;;;;;;;13.05;100.00;98097.25;15274750;19;20033;-56
2023/02/22 11:46:15;;;;;;;2.75;1.80;;;;;;;13.01;100.00;98087.81;15269728;19;20133;-55
2023/02/22 11:52:09;;;;;;;1.87;1.70;;;;;;;13.08;100.00;98080.66;15270653;19;20014;-54
2023/02/22 11:57:46;;;;;;;2.53;1.63;;;;;;;13.09;100.00;98080.47;15272761;19;20255;-52
2023/02/22 12:03:55;;;;;;;2.45;1.70;;;;;;;13.29;100.00;98070.94;15271501;19;20011;-53
2023/02/22 12:09:34;;;;;;;1.67;1.42;;;;;;;13.47;100.00;98067.88;15265236;19;20018;-53
2023/02/22 12:15:12;;;;;;;1.50;1.40;;;;;;;13.61;100.00;98067.03;15270407;19;20011;-54
2023/02/22 12:20:41;;;;;;;1.58;1.48;;;;;;;13.62;100.00;98059.75;15271067;19;20007;-55
2023/02/22 12:26:18;;;;;;;1.52;1.20;;;;;;;13.73;100.00;98050.31;15269933;19;20018;-54
2023/02/22 12:31:47;;;;;;;3.03;1.45;;;;;;;13.83;100.00;98051.66;15272958;19;20078;-55
2023/02/22 12:37:19;;;;;;;2.45;1.52;;;;;;;13.92;100.00;98057.78;15267738;19;20019;-51
2023/02/22 12:42:55;;;;;;;2.33;1.80;;;;;;;13.87;100.00;98047.53;15271788;19;20021;-55
2023/02/22 12:48:44;;;;;;;3.65;1.73;;;;;;;13.93;100.00;98045.94;15269410;19;20823;-53
2023/02/22 12:54:15;;;;;;;1.60;1.50;;;;;;;14.11;100.00;98044.66;15267880;19;20352;-51
2023/02/22 12:59:47;;;;;;;1.60;1.50;;;;;;;14.27;100.00;98041.69;15269297;19;20017;-51
2023/02/22 13:05:16;;;;;;;2.10;1.73;;;;;;;14.32;100.00;98041.09;15261600;19;20018;-51
2023/02/22 13:10:51;;;;;;;1.52;1.42;;;;;;;14.58;100.00;98032.34;15272514;19;20015;-52
2023/02/22 13:16:31;;;;;;;1.55;1.45;;;;;;;14.69;100.00;98032.88;15279793;19;20031;-55
2023/02/22 13:22:03;;;;;;;1.43;1.27;;;;;;;14.86;100.00;98025.28;15286389;19;20010;-55
2023/02/22 13:27:39;;;;;;;2.43;1.50;;;;;;;14.98;100.00;98020.13;15276806;19;20247;-52
2023/02/22 13:33:29;;;;;;;1.35;1.10;;;;;;;14.99;100.00;98019.94;15283634;19;20649;-53
2023/02/22 13:39:26;;;;;;;1.80;1.30;;;;;;;15.04;100.00;98014.75;15273613;19;20011;-55
2023/02/22 13:45:25;;;;;;;2.72;1.17;;;;;;;15.07;100.00;98008.91;15278274;19;20029;-55
2023/02/22 13:51:16;;;;;;;2.05;1.15;;;;;;;15.22;100.00;98014.22;15279842;19;20380;-53
2023/02/22 13:56:44;;;;;;;1.15;1.00;;;;;;;15.27;100.00;98013.59;15275948;19;20041;-55
2023/02/22 14:02:11;;;;;;;1.90;1.42;;;;;;;15.30;100.00;98007.78;15280869;19;20029;-56
2023/02/22 14:08:00;;;;;;;1.73;1.10;;;;;;;15.33;100.00;97996.53;15279195;19;20047;-54
2023/02/22 14:13:26;;;;;;;6.57;1.20;;;;;;;15.39;100.00;98001.13;15271855;19;20034;-55
2023/02/22 14:19:01;;;;;;;1.27;1.00;;;;;;;15.38;100.00;97996.72;15280991;19;20028;-54
2023/02/22 14:24:37;;;;;;;2.33;1.10;;;;;;;15.40;100.00;97988.41;15277867;19;20014;-57
2023/02/22 14:30:02;;;;;;;3.83;1.60;;;;;;;15.35;100.00;97988.16;15278285;19;20082;-57
2023/02/22 14:35:30;;;;;;;3.30;1.58;;;;;;;15.20;100.00;97977.47;15271865;19;21070;-56
2023/02/22 14:41:10;;;;;;;1.67;1.55;;;;;;;15.04;100.00;97981.38;15275264;19;20017;-57
2023/02/22 14:46:39;;;;;;;3.30;1.60;;;;;;;14.92;100.00;97984.66;15276705;19;20023;-54
2023/02/22 14:52:16;;;;;;;2.45;1.42;;;;;;;14.86;100.00;97973.75;15278196;19;20023;-55
2023/02/22 14:57:55;;;;;;;1.40;1.30;;;;;;;14.85;100.00;97972.91;15273913;19;20021;-55
2023/02/22 15:03:31;;;;;;;1.60;1.50;;;;;;;14.76;100.00;97964.09;15275259;19;20081;-55
2023/02/22 15:08:58;;;;;;;3.28;1.60;;;;;;;14.64;100.00;97968.38;15274658;19;20010;-56
2023/02/22 15:14:27;;;;;;;3.80;1.70;;;;;;;14.54;100.00;97970.59;15268415;19;20472;-53
2023/02/22 15:19:54;;;;;;;2.63;2.00;;;;;;;14.44;100.00;97960.94;15275926;19;20006;-56
2023/02/22 15:25:26;;;;;;;2.00;1.73;;;;;;;14.32;100.00;97968.78;15274422;19;20040;-53
2023/02/22 15:30:58;;;;;;;5.97;2.03;;;;;;;14.22;100.00;97964.72;15271154;19;20702;-53
2023/02/22 15:36:27;;;;;;;2.50;2.25;;;;;;;14.04;100.00;97957.94;15269984;19;20018;-51
2023/02/22 15:41:52;;;;;;;2.40;2.10;;;;;;;13.93;100.00;97959.28;15272374;19;20014;-52
2023/02/22 15:47:22;;;;;;;2.60;2.10;;;;;;;13.75;100.00;97951.59;15268521;19;20029;-56
2023/02/22 15:52:57;;;;;;;2.60;2.40;;;;;;;13.64;100.00;97960.25;15269981;19;20018;-53
2023/02/22 15:58:27;;;;;;;2.95;2.20;;;;;;;13.50;100.00;97960.09;15264457;19;20014;-56
2023/02/22 16:03:58;;;;;;;2.90;2.00;;;;;;;13.38;100.00;97958.88;15270561;19;20870;-57
2023/02/22 16:09:29;;;;;;;2.78;2.20;;;;;;;13.20;100.00;97959.31;15272673;19;20021;-57
2023/02/22 16:14:54;;;;;;;3.97;2.45;;;;;;;13.01;100.00;97960.72;15269356;19;20039;-56
2023/02/22 16:20:36;;;;;;;3.35;2.33;;;;;;;12.73;100.00;97959.53;15266199;19;20393;-55
2023/02/22 16:26:15;;;;;;;3.08;2.25;;;;;;;12.55;100.00;97965.31;15266280;19;20798;-53
2023/02/22 16:31:41;;;;;;;4.03;2.10;;;;;;;12.26;100.00;97969.66;15270947;19;20015;-52
2023/02/22 16:37:09;;;;;;;2.92;2.40;;;;;;;11.86;100.00;97961.72;15267567;19;20025;-54
2023/02/22 16:42:33;;;;;;;2.60;2.40;;;;;;;11.59;100.00;97963.06;15270710;19;20033;-54
2023/02/22 16:47:58;;;;;;;4.10;2.40;;;;;;;11.37;100.00;97980.94;15280837;19;20479;-53
2023/02/22 16:53:28;;;;;;;3.60;2.50;;;;;;;11.18;100.00;97976.81;15277543;19;20037;-54
2023/02/22 16:58:55;;;;;;;3.03;2.58;;;;;;;10.99;100.00;97983.47;15284462;19;20478;-57
2023/02/22 17:04:22;;;;;;;2.92;2.70;;;;;;;10.81;100.00;97979.16;15283757;19;20056;-54
2023/02/22 17:09:50;;;;;;;3.40;2.63;;;;;;;10.64;100.00;97986.47;15274587;19;20017;-56
2023/02/22 17:15:23;;;;;;;2.67;2.45;;;;;;;10.52;100.00;97979.75;15279252;19;20030;-53
2023/02/22 17:20:48;;;;;;;3.53;2.55;;;;;;;10.43;100.00;97974.38;15282854;19;20029;-50
2023/02/22 17:26:16;;;;;;;3.35;2.88;;;;;;;10.30;100.00;97979.41;15275862;19;20015;-55
2023/02/22 17:31:42;;;;;;;4.05;2.63;;;;;;;10.18;100.00;97982.44;15283149;19;20113;-56
2023/02/22 17:37:07;;;;;;;5.35;2.97;;;;;;;10.06;100.00;97989.19;15280796;19;20024;-56
2023/02/22 17:42:34;;;;;;;5.63;3.03;;;;;;;9.99;100.00;97988.19;15281621;19;20240;-54
2023/02/22 17:47:59;;;;;;;3.08;2.70;;;;;;;9.94;100.00;97986.00;15281672;19;20010;-54
2023/02/22 17:53:24;;;;;;;4.45;3.20;;;;;;;9.90;100.00;97989.19;15279252;19;20771;-54
2023/02/22 17:58:54;;;;;;;3.95;3.03;;;;;;;9.86;100.00;97977.94;15268086;19;20025;-54
2023/02/22 18:04:19;;;;;;;4.40;2.90;;;;;;;9.80;100.00;97976.75;15280750;19;20022;-56
2023/02/22 18:09:43;;;;;;;3.88;3.10;;;;;;;9.76;100.00;97988.84;15277266;19;20364;-52
2023/02/22 18:15:11;;;;;;;3.33;2.97;;;;;;;9.69;100.00;97982.47;15278031;19;20026;-55
2023/02/22 18:20:42;;;;;;;3.75;3.15;;;;;;;9.65;100.00;97984.63;15279482;19;20380;-52
2023/02/22 18:26:14;;;;;;;3.85;3.15;;;;;;;9.60;100.00;97984.28;15273231;19;20017;-53
2023/02/22 18:31:44;;;;;;;4.50;3.10;;;;;;;9.53;100.00;97978.72;15271463;19;20023;-55
2023/02/22 18:37:08;;;;;;;4.38;3.28;;;;;;;9.47;100.00;97978.56;15275161;19;20016;-55
2023/02/22 18:42:32;;;;;;;4.57;3.42;;;;;;;9.40;100.00;97973.00;15277456;19;20385;-52
2023/02/22 18:48:00;;;;;;;4.55;3.50;;;;;;;9.33;100.00;97983.56;15277401;19;20022;-54
2023/02/22 18:53:24;;;;;;;4.95;3.55;;;;;;;9.29;100.00;97976.81;15280634;19;20018;-55
2023/02/22 18:58:50;;;;;;;4.30;3.75;;;;;;;9.25;100.00;97976.31;15269494;19;20018;-51
2023/02/22 19:04:17;;;;;;;4.38;3.40;;;;;;;9.23;100.00;97966.72;15269416;19;20026;-52
2023/02/22 19:09:42;;;;;;;4.55;3.30;;;;;;;9.21;100.00;97969.59;15270643;19;20021;-55
2023/02/22 19:15:07;;;;;;;3.45;3.15;;;;;;;9.21;100.00;97969.59;15267545;19;20018;-54
2023/02/22 19:20:35;;;;;;;4.97;3.17;;;;;;;9.21;100.00;97963.38;15272091;19;20037;-54
2023/02/22 19:26:08;;;;;;;3.42;3.13;;;;;;;9.19;100.00;97965.38;15253816;19;20014;-51
2023/02/22 19:31:35;;;;;;;3.80;3.40;;;;;;;9.20;100.00;97961.69;15268854;19;20392;-52
2023/02/22 19:37:03;;;;;;;3.25;2.97;;;;;;;9.19;100.00;97955.47;15269281;19;20025;-48
2023/02/22 19:42:29;;;;;;;6.00;3.40;;;;;;;9.19;100.00;97955.47;15271334;19;20018;-49
2023/02/22 19:47:54;;;;;;;3.70;3.30;;;;;;;9.16;100.00;97950.44;15272813;19;20475;-54
2023/02/22 19:53:21;;;;;;;3.42;3.13;;;;;;;9.16;100.00;97955.78;15269214;19;20653;-50
2023/02/22 19:58:48;;;;;;;3.33;2.92;;;;;;;9.17;100.00;97959.34;15263927;19;20038;-52
2023/02/22 20:04:16;;;;;;;4.72;3.03;;;;;;;9.18;100.00;97959.16;15261591;19;20014;-47
2023/02/22 20:09:44;;;;;;;3.40;3.10;;;;;;;9.19;100.00;97962.69;15271892;19;20014;-49
2023/02/22 20:15:10;;;;;;;4.68;3.33;;;;;;;9.20;100.00;97965.22;15270992;19;20015;-48
2023/02/22 20:20:36;;;;;;;3.90;3.22;;;;;;;9.21;100.00;97964.22;15266464;19;20886;-48
2023/02/22 20:26:03;;;;;;;3.65;3.10;;;;;;;9.22;100.00;97973.97;15263467;19;20022;-50
2023/02/22 20:31:29;;;;;;;3.60;3.00;;;;;;;9.26;100.00;97966.41;15267733;19;20010;-49
2023/02/22 20:36:55;;;;;;;3.70;3.08;;;;;;;9.28;100.00;97960.88;15260132;19;20345;-50
2023/02/22 20:42:22;;;;;;;3.28;2.47;;;;;;;9.30;100.00;97964.22;15271167;19;20042;-51
2023/02/22 20:47:47;;;;;;;3.22;2.65;;;;;;;9.31;100.00;97968.59;15272746;19;20018;-50
2023/02/22 20:53:11;;;;;;;3.20;2.90;;;;;;;9.29;100.00;97965.25;15267886;19;20010;-52
2023/02/22 20:58:38;;;;;;;4.22;3.17;;;;;;;9.21;100.00;97966.91;15267894;19;20015;-53
2023/02/22 21:04:08;;;;;;;3.35;2.83;;;;;;;9.10;100.00;97964.53;15273148;19;20011;-51
2023/02/22 21:09:34;;;;;;;3.25;2.88;;;;;;;9.01;100.00;97977.09;15264416;19;20078;-51
2023/02/22 21:15:01;;;;;;;3.78;2.70;;;;;;;9.00;100.00;97971.84;15265213;19;20010;-50
2023/02/22 21:20:26;;;;;;;5.78;2.78;;;;;;;8.98;100.00;97968.53;15263366;19;20011;-48
2023/02/22 21:26:01;;;;;;;2.72;2.30;;;;;;;9.00;100.00;97974.53;15262596;19;20042;-50
2023/02/22 21:31:30;;;;;;;3.00;2.33;;;;;;;9.01;100.00;97973.53;15269364;19;20471;-51
2023/02/22 21:36:55;;;;;;;3.05;2.20;;;;;;;8.98;100.00;97968.53;15276470;19;20372;-48
2023/02/22 21:42:21;;;;;;;2.22;1.90;;;;;;;8.97;100.00;97966.81;15274788;19;20025;-51
2023/02/22 21:47:48;;;;;;;2.30;2.10;;;;;;;9.00;100.00;97969.16;15281668;19;20672;-49
2023/02/22 21:53:13;;;;;;;2.65;1.98;;;;;;;9.04;100.00;97965.16;15281584;19;20034;-49
2023/02/22 21:58:38;;;;;;;2.00;1.80;;;;;;;9.05;100.00;97965.03;15273044;19;20014;-51
2023/02/22 22:04:08;;;;;;;3.05;1.90;;;;;;;9.08;100.00;97970.03;15278433;19;20024;-51
2023/02/22 22:09:36;;;;;;;2.53;2.00;;;;;;;9.12;100.00;97964.34;15277043;19;20028;-51
2023/02/22 22:15:03;;;;;;;2.55;1.90;;;;;;;9.13;100.00;97964.19;15269499;19;20074;-49
2023/02/22 22:20:30;;;;;;;2.55;2.00;;;;;;;9.23;100.00;97964.88;15280089;19;20093;-51
2023/02/22 22:26:05;;;;;;;2.60;1.95;;;;;;;9.24;100.00;97955.81;15275934;19;20022;-49
2023/02/22 22:31:32;;;;;;;3.90;2.03;;;;;;;9.25;100.00;97954.81;15266744;19;20019;-51
2023/02/22 22:36:59;;;;;;;2.72;2.00;;;;;;;9.25;100.00;97946.75;15273949;19;20018;-49
2023/02/22 22:42:24;;;;;;;2.85;2.05;;;;;;;9.30;100.00;97950.78;15271470;19;20033;-48
2023/02/22 22:47:51;;;;;;;2.30;2.10;;;;;;;9.32;100.00;97948.78;15269528;19;20018;-49
2023/02/22 22:53:18;;;;;;;2.92;2.10;;;;;;;9.33;100.00;97956.69;14767066;19;10000916;-47
2023/02/22 22:58:44;;;;;;;2.22;2.03;;;;;;;9.34;100.00;97952.97;15272101;19;20017;-48
2023/02/22 23:04:12;;;;;;;2.30;1.98;;;;;;;9.36;100.00;97961.72;15276004;19;20014;-49
2023/02/22 23:09:42;;;;;;;2.20;2.00;;;;;;;9.36;100.00;97960.88;15274914;19;20032;-49
2023/02/22 23:15:12;;;;;;;2.75;2.00;;;;;;;9.35;100.00;97953.84;15275360;19;20073;-51
2023/02/22 23:20:38;;;;;;;2.90;2.40;;;;;;;9.33;100.00;97942.41;15266743;19;20029;-51
2023/02/22 23:26:16;;;;;;;2.97;2.35;;;;;;;9.29;100.00;97959.88;15273091;19;20030;-49
2023/02/22 23:31:42;;;;;;;2.95;2.40;;;;;;;9.31;100.00;97955.16;15275422;19;20049;-52
2023/02/22 23:37:08;;;;;;;2.38;2.17;;;;;;;9.30;100.00;97950.78;15271675;19;20007;-49
2023/02/22 23:42:37;;;;;;;3.22;2.33;;;;;;;9.27;100.00;97948.44;15272934;19;20021;-48
2023/02/22 23:48:04;;;;;;;2.60;2.40;;;;;;;9.25;100.00;97952.13;15272119;19;20041;-49
2023/02/22 23:53:29;;;;;;;2.60;2.40;;;;;;;9.24;100.00;97947.75;15264686;19;20015;-51
2023/02/22 23:58:58;;;;;;;2.90;2.40;;;;;;;9.28;100.00;97950.97;15267853;19;20018;-49
